sensor_id;sensor_type;location;lat;lon;timestamp;temperature;humidity
65421;DHT22;52028;50.658;14.004;2022-12-07T00:01:13;4.14;82.06
65421;DHT22;52028;50.658;14.004;2022-12-07T00:03:40;4.13;81.82
65421;DHT22;52028;50.658;14.004;2022-12-07T00:06:08;4.13;81.99
65421;DHT22;52028;50.658;14.004;2022-12-07T00:08:34;4.18;81.58
65421;DHT22;52028;50.658;14.004;2022-12-07T00:11:11;4.14;81.51
65421;DHT22;52028;50.658;14.004;2022-12-07T00:13:37;4.14;81.61
65421;DHT22;52028;50.658;14.004;2022-12-07T00:16:07;4.10;81.79
65421;DHT22;52028;50.658;14.004;2022-12-07T00:18:33;4.13;81.49
65421;DHT22;52028;50.658;14.004;2022-12-07T00:21:20;4.13;81.71
65421;DHT22;52028;50.658;14.004;2022-12-07T00:23:47;4.10;81.54
65421;DHT22;52028;50.658;14.004;2022-12-07T00:26:20;4.17;80.65
65421;DHT22;52028;50.658;14.004;2022-12-07T00:28:51;4.17;79.46
65421;DHT22;52028;50.658;14.004;2022-12-07T00:31:18;4.10;78.90
65421;DHT22;52028;50.658;14.004;2022-12-07T00:33:44;4.10;78.91
65421;DHT22;52028;50.658;14.004;2022-12-07T00:36:12;4.11;79.23
65421;DHT22;52028;50.658;14.004;2022-12-07T00:38:39;4.13;79.09
65421;DHT22;52028;50.658;14.004;2022-12-07T00:41:07;4.16;79.21
65421;DHT22;52028;50.658;14.004;2022-12-07T00:43:34;4.17;79.49
65421;DHT22;52028;50.658;14.004;2022-12-07T00:45:59;4.20;79.23
65421;DHT22;52028;50.658;14.004;2022-12-07T00:48:25;4.22;78.98
65421;DHT22;52028;50.658;14.004;2022-12-07T00:50:50;4.27;79.06
65421;DHT22;52028;50.658;14.004;2022-12-07T00:53:16;4.24;79.17
65421;DHT22;52028;50.658;14.004;2022-12-07T00:55:43;4.27;78.51
65421;DHT22;52028;50.658;14.004;2022-12-07T00:58:09;4.37;78.25
65421;DHT22;52028;50.658;14.004;2022-12-07T01:00:36;4.40;78.49
65421;DHT22;52028;50.658;14.004;2022-12-07T01:03:01;4.40;78.37
65421;DHT22;52028;50.658;14.004;2022-12-07T01:05:27;4.42;78.27
65421;DHT22;52028;50.658;14.004;2022-12-07T01:07:52;4.38;78.43
65421;DHT22;52028;50.658;14.004;2022-12-07T01:10:18;4.44;78.29
65421;DHT22;52028;50.658;14.004;2022-12-07T01:12:43;4.36;78.20
65421;DHT22;52028;50.658;14.004;2022-12-07T01:15:08;4.33;78.62
65421;DHT22;52028;50.658;14.004;2022-12-07T01:17:34;4.33;78.98
65421;DHT22;52028;50.658;14.004;2022-12-07T01:20:00;4.47;78.35
65421;DHT22;52028;50.658;14.004;2022-12-07T01:22:26;4.48;77.87
65421;DHT22;52028;50.658;14.004;2022-12-07T01:24:51;4.58;77.86
65421;DHT22;52028;50.658;14.004;2022-12-07T01:27:16;4.56;77.50
65421;DHT22;52028;50.658;14.004;2022-12-07T01:29:42;4.58;77.61
65421;DHT22;52028;50.658;14.004;2022-12-07T01:32:07;4.61;77.65
65421;DHT22;52028;50.658;14.004;2022-12-07T01:34:33;4.61;77.50
65421;DHT22;52028;50.658;14.004;2022-12-07T01:36:58;4.62;77.64
65421;DHT22;52028;50.658;14.004;2022-12-07T01:39:24;4.62;77.62
65421;DHT22;52028;50.658;14.004;2022-12-07T01:41:49;4.59;77.69
65421;DHT22;52028;50.658;14.004;2022-12-07T01:46:57;4.64;76.96
65421;DHT22;52028;50.658;14.004;2022-12-07T01:51:49;4.54;77.33
65421;DHT22;52028;50.658;14.004;2022-12-07T01:54:17;4.48;77.84
65421;DHT22;52028;50.658;14.004;2022-12-07T01:56:49;4.37;78.84
65421;DHT22;52028;50.658;14.004;2022-12-07T01:59:17;4.16;79.91
65421;DHT22;52028;50.658;14.004;2022-12-07T02:01:43;4.03;80.86
65421;DHT22;52028;50.658;14.004;2022-12-07T02:04:10;4.04;81.64
65421;DHT22;52028;50.658;14.004;2022-12-07T02:06:36;3.90;82.12
65421;DHT22;52028;50.658;14.004;2022-12-07T02:09:03;3.75;83.08
65421;DHT22;52028;50.658;14.004;2022-12-07T02:11:29;3.64;83.67
65421;DHT22;52028;50.658;14.004;2022-12-07T02:13:54;3.59;84.40
65421;DHT22;52028;50.658;14.004;2022-12-07T02:21:55;3.65;85.21
65421;DHT22;52028;50.658;14.004;2022-12-07T02:32:14;3.69;85.42
65421;DHT22;52028;50.658;14.004;2022-12-07T02:34:57;3.54;85.33
65421;DHT22;52028;50.658;14.004;2022-12-07T02:40:38;3.51;86.19
65421;DHT22;52028;50.658;14.004;2022-12-07T02:43:14;3.48;86.36
65421;DHT22;52028;50.658;14.004;2022-12-07T02:45:41;3.47;86.69
65421;DHT22;52028;50.658;14.004;2022-12-07T02:48:08;3.42;86.87
65421;DHT22;52028;50.658;14.004;2022-12-07T02:50:35;3.42;86.75
65421;DHT22;52028;50.658;14.004;2022-12-07T02:53:00;3.44;86.75
65421;DHT22;52028;50.658;14.004;2022-12-07T02:55:30;3.48;87.06
65421;DHT22;52028;50.658;14.004;2022-12-07T03:03:28;3.54;86.73
65421;DHT22;52028;50.658;14.004;2022-12-07T03:06:12;3.32;87.25
65421;DHT22;52028;50.658;14.004;2022-12-07T03:12:01;3.13;88.44
65421;DHT22;52028;50.658;14.004;2022-12-07T03:14:34;3.13;88.73
65421;DHT22;52028;50.658;14.004;2022-12-07T03:17:24;3.07;88.90
65421;DHT22;52028;50.658;14.004;2022-12-07T03:19:53;3.06;89.04
65421;DHT22;52028;50.658;14.004;2022-12-07T03:22:23;3.13;89.18
65421;DHT22;52028;50.658;14.004;2022-12-07T03:24:55;3.13;88.76
65421;DHT22;52028;50.658;14.004;2022-12-07T03:27:29;3.13;89.45
65421;DHT22;52028;50.658;14.004;2022-12-07T03:30:03;3.09;89.15
65421;DHT22;52028;50.658;14.004;2022-12-07T03:32:34;3.00;89.28
65421;DHT22;52028;50.658;14.004;2022-12-07T03:40:15;2.79;89.77
65421;DHT22;52028;50.658;14.004;2022-12-07T03:42:42;2.92;89.78
65421;DHT22;52028;50.658;14.004;2022-12-07T03:45:08;3.07;89.68
65421;DHT22;52028;50.658;14.004;2022-12-07T03:50:11;3.32;88.73
65421;DHT22;52028;50.658;14.004;2022-12-07T03:52:42;3.32;88.65
65421;DHT22;52028;50.658;14.004;2022-12-07T03:57:36;3.41;88.17
65421;DHT22;52028;50.658;14.004;2022-12-07T04:00:06;3.40;88.00
65421;DHT22;52028;50.658;14.004;2022-12-07T04:02:32;3.34;88.10
65421;DHT22;52028;50.658;14.004;2022-12-07T04:04:58;3.44;87.91
65421;DHT22;52028;50.658;14.004;2022-12-07T04:07:24;3.47;88.12
65421;DHT22;52028;50.658;14.004;2022-12-07T04:09:49;3.55;87.79
65421;DHT22;52028;50.658;14.004;2022-12-07T04:12:15;3.47;87.43
65421;DHT22;52028;50.658;14.004;2022-12-07T04:14:40;3.47;87.66
65421;DHT22;52028;50.658;14.004;2022-12-07T04:17:05;3.47;87.87
65421;DHT22;52028;50.658;14.004;2022-12-07T04:19:33;3.27;88.11
65421;DHT22;52028;50.658;14.004;2022-12-07T04:22:00;3.31;88.33
65421;DHT22;52028;50.658;14.004;2022-12-07T04:24:26;3.24;88.43
65421;DHT22;52028;50.658;14.004;2022-12-07T04:26:51;3.28;87.97
65421;DHT22;52028;50.658;14.004;2022-12-07T04:29:18;3.19;87.94
65421;DHT22;52028;50.658;14.004;2022-12-07T04:31:43;3.14;87.88
65421;DHT22;52028;50.658;14.004;2022-12-07T04:34:09;3.02;87.83
65421;DHT22;52028;50.658;14.004;2022-12-07T04:36:35;3.06;88.12
65421;DHT22;52028;50.658;14.004;2022-12-07T04:39:03;3.04;88.35
65421;DHT22;52028;50.658;14.004;2022-12-07T04:41:29;3.12;88.18
65421;DHT22;52028;50.658;14.004;2022-12-07T04:46:49;3.17;86.00
65421;DHT22;52028;50.658;14.004;2022-12-07T04:49:16;3.27;83.36
65421;DHT22;52028;50.658;14.004;2022-12-07T04:51:43;3.44;84.31
65421;DHT22;52028;50.658;14.004;2022-12-07T04:54:08;3.40;85.69
65421;DHT22;52028;50.658;14.004;2022-12-07T04:56:34;3.30;85.30
65421;DHT22;52028;50.658;14.004;2022-12-07T04:59:01;3.27;86.21
65421;DHT22;52028;50.658;14.004;2022-12-07T05:01:26;3.26;86.24
65421;DHT22;52028;50.658;14.004;2022-12-07T05:03:52;3.19;86.66
65421;DHT22;52028;50.658;14.004;2022-12-07T05:06:29;3.23;86.73
65421;DHT22;52028;50.658;14.004;2022-12-07T05:08:57;3.12;85.66
65421;DHT22;52028;50.658;14.004;2022-12-07T05:11:22;2.93;84.57
65421;DHT22;52028;50.658;14.004;2022-12-07T05:16:33;2.95;85.64
65421;DHT22;52028;50.658;14.004;2022-12-07T05:18:58;2.95;84.21
65421;DHT22;52028;50.658;14.004;2022-12-07T05:21:24;2.99;84.83
65421;DHT22;52028;50.658;14.004;2022-12-07T05:23:49;2.85;83.29
65421;DHT22;52028;50.658;14.004;2022-12-07T05:26:15;2.71;81.84
65421;DHT22;52028;50.658;14.004;2022-12-07T05:28:43;2.54;81.17
65421;DHT22;52028;50.658;14.004;2022-12-07T05:31:08;2.31;81.20
65421;DHT22;52028;50.658;14.004;2022-12-07T05:33:35;2.16;81.48
65421;DHT22;52028;50.658;14.004;2022-12-07T05:36:00;2.03;81.01
65421;DHT22;52028;50.658;14.004;2022-12-07T05:38:31;1.96;81.68
65421;DHT22;52028;50.658;14.004;2022-12-07T05:41:02;1.92;81.86
65421;DHT22;52028;50.658;14.004;2022-12-07T05:43:27;1.89;82.37
65421;DHT22;52028;50.658;14.004;2022-12-07T05:45:53;1.91;84.07
65421;DHT22;52028;50.658;14.004;2022-12-07T05:48:18;1.83;85.04
65421;DHT22;52028;50.658;14.004;2022-12-07T05:50:43;1.83;85.61
65421;DHT22;52028;50.658;14.004;2022-12-07T05:53:09;1.86;86.24
65421;DHT22;52028;50.658;14.004;2022-12-07T05:55:34;1.78;86.94
65421;DHT22;52028;50.658;14.004;2022-12-07T05:57:59;1.81;87.53
65421;DHT22;52028;50.658;14.004;2022-12-07T06:00:43;1.91;86.22
65421;DHT22;52028;50.658;14.004;2022-12-07T06:03:08;2.19;83.80
65421;DHT22;52028;50.658;14.004;2022-12-07T06:05:35;2.17;84.42
65421;DHT22;52028;50.658;14.004;2022-12-07T06:08:00;2.16;85.06
65421;DHT22;52028;50.658;14.004;2022-12-07T06:10:25;2.23;85.27
65421;DHT22;52028;50.658;14.004;2022-12-07T06:12:50;2.23;85.34
65421;DHT22;52028;50.658;14.004;2022-12-07T06:15:16;2.20;85.24
65421;DHT22;52028;50.658;14.004;2022-12-07T06:17:42;2.29;84.62
65421;DHT22;52028;50.658;14.004;2022-12-07T06:20:07;2.24;84.96
65421;DHT22;52028;50.658;14.004;2022-12-07T06:22:33;2.19;85.15
65421;DHT22;52028;50.658;14.004;2022-12-07T06:24:58;2.16;85.42
65421;DHT22;52028;50.658;14.004;2022-12-07T06:27:23;2.09;85.13
65421;DHT22;52028;50.658;14.004;2022-12-07T06:29:49;2.14;85.09
65421;DHT22;52028;50.658;14.004;2022-12-07T06:32:14;2.09;84.58
65421;DHT22;52028;50.658;14.004;2022-12-07T06:34:40;2.10;81.11
65421;DHT22;52028;50.658;14.004;2022-12-07T06:37:05;2.19;81.44
65421;DHT22;52028;50.658;14.004;2022-12-07T06:39:31;2.26;83.19
65421;DHT22;52028;50.658;14.004;2022-12-07T06:41:57;2.27;83.06
65421;DHT22;52028;50.658;14.004;2022-12-07T06:44:23;2.48;80.88
65421;DHT22;52028;50.658;14.004;2022-12-07T06:46:50;2.66;78.54
65421;DHT22;52028;50.658;14.004;2022-12-07T06:49:16;2.78;79.40
65421;DHT22;52028;50.658;14.004;2022-12-07T06:51:42;2.86;78.22
65421;DHT22;52028;50.658;14.004;2022-12-07T06:54:12;2.92;78.45
65421;DHT22;52028;50.658;14.004;2022-12-07T06:56:37;2.95;78.94
65421;DHT22;52028;50.658;14.004;2022-12-07T06:59:05;2.92;79.20
65421;DHT22;52028;50.658;14.004;2022-12-07T07:01:31;3.06;76.39
65421;DHT22;52028;50.658;14.004;2022-12-07T07:03:57;3.16;76.32
65421;DHT22;52028;50.658;14.004;2022-12-07T07:06:22;3.19;75.52
65421;DHT22;52028;50.658;14.004;2022-12-07T07:08:48;3.19;75.01
65421;DHT22;52028;50.658;14.004;2022-12-07T07:11:13;3.24;74.43
65421;DHT22;52028;50.658;14.004;2022-12-07T07:13:39;3.23;74.59
65421;DHT22;52028;50.658;14.004;2022-12-07T07:16:05;3.26;74.17
65421;DHT22;52028;50.658;14.004;2022-12-07T07:18:30;3.20;74.45
65421;DHT22;52028;50.658;14.004;2022-12-07T07:20:56;3.19;73.75
65421;DHT22;52028;50.658;14.004;2022-12-07T07:23:22;3.21;74.22
65421;DHT22;52028;50.658;14.004;2022-12-07T07:25:47;3.28;73.88
65421;DHT22;52028;50.658;14.004;2022-12-07T07:28:14;3.34;74.10
65421;DHT22;52028;50.658;14.004;2022-12-07T07:30:39;3.20;74.56
65421;DHT22;52028;50.658;14.004;2022-12-07T07:33:05;3.23;74.64
65421;DHT22;52028;50.658;14.004;2022-12-07T07:35:34;3.24;74.11
65421;DHT22;52028;50.658;14.004;2022-12-07T07:38:03;3.27;74.69
65421;DHT22;52028;50.658;14.004;2022-12-07T07:40:29;3.35;74.65
65421;DHT22;52028;50.658;14.004;2022-12-07T07:42:55;3.40;74.44
65421;DHT22;52028;50.658;14.004;2022-12-07T07:45:22;3.40;74.75
65421;DHT22;52028;50.658;14.004;2022-12-07T07:47:48;3.41;75.37
65421;DHT22;52028;50.658;14.004;2022-12-07T07:50:13;3.41;75.70
65421;DHT22;52028;50.658;14.004;2022-12-07T07:52:38;3.32;75.96
65421;DHT22;52028;50.658;14.004;2022-12-07T07:55:04;3.31;76.50
65421;DHT22;52028;50.658;14.004;2022-12-07T07:57:30;3.37;76.85
65421;DHT22;52028;50.658;14.004;2022-12-07T07:59:55;3.38;77.04
65421;DHT22;52028;50.658;14.004;2022-12-07T08:02:21;3.31;77.79
65421;DHT22;52028;50.658;14.004;2022-12-07T08:04:47;3.32;77.98
65421;DHT22;52028;50.658;14.004;2022-12-07T08:07:13;3.28;77.87
65421;DHT22;52028;50.658;14.004;2022-12-07T08:09:38;3.28;78.14
65421;DHT22;52028;50.658;14.004;2022-12-07T08:12:04;3.35;78.59
65421;DHT22;52028;50.658;14.004;2022-12-07T08:14:30;3.34;79.03
65421;DHT22;52028;50.658;14.004;2022-12-07T08:16:56;3.37;79.11
65421;DHT22;52028;50.658;14.004;2022-12-07T08:19:21;3.31;79.06
65421;DHT22;52028;50.658;14.004;2022-12-07T08:21:46;3.31;79.82
65421;DHT22;52028;50.658;14.004;2022-12-07T08:24:12;3.35;80.07
65421;DHT22;52028;50.658;14.004;2022-12-07T08:26:38;3.47;79.71
65421;DHT22;52028;50.658;14.004;2022-12-07T08:29:03;3.59;79.87
65421;DHT22;52028;50.658;14.004;2022-12-07T08:31:29;3.62;79.87
65421;DHT22;52028;50.658;14.004;2022-12-07T08:33:54;3.52;79.89
65421;DHT22;52028;50.658;14.004;2022-12-07T08:36:20;3.62;80.41
65421;DHT22;52028;50.658;14.004;2022-12-07T08:38:48;3.65;79.59
65421;DHT22;52028;50.658;14.004;2022-12-07T08:41:13;3.65;79.75
65421;DHT22;52028;50.658;14.004;2022-12-07T08:43:38;3.66;79.92
65421;DHT22;52028;50.658;14.004;2022-12-07T08:46:20;3.58;80.36
65421;DHT22;52028;50.658;14.004;2022-12-07T08:48:51;3.51;81.04
65421;DHT22;52028;50.658;14.004;2022-12-07T08:51:18;3.50;80.99
65421;DHT22;52028;50.658;14.004;2022-12-07T08:53:44;3.42;81.48
65421;DHT22;52028;50.658;14.004;2022-12-07T08:56:10;3.37;81.89
65421;DHT22;52028;50.658;14.004;2022-12-07T08:58:36;3.35;82.47
65421;DHT22;52028;50.658;14.004;2022-12-07T09:01:03;3.38;82.54
65421;DHT22;52028;50.658;14.004;2022-12-07T09:03:29;3.32;82.75
65421;DHT22;52028;50.658;14.004;2022-12-07T09:05:55;3.34;82.96
65421;DHT22;52028;50.658;14.004;2022-12-07T09:08:22;3.31;83.12
65421;DHT22;52028;50.658;14.004;2022-12-07T09:10:47;3.34;83.57
65421;DHT22;52028;50.658;14.004;2022-12-07T09:13:13;3.26;83.37
65421;DHT22;52028;50.658;14.004;2022-12-07T09:15:38;3.17;83.74
65421;DHT22;52028;50.658;14.004;2022-12-07T09:18:05;3.00;84.33
65421;DHT22;52028;50.658;14.004;2022-12-07T09:20:30;2.99;84.96
65421;DHT22;52028;50.658;14.004;2022-12-07T09:22:56;3.03;85.23
65421;DHT22;52028;50.658;14.004;2022-12-07T09:25:21;3.17;84.77
65421;DHT22;52028;50.658;14.004;2022-12-07T09:27:46;3.19;84.44
65421;DHT22;52028;50.658;14.004;2022-12-07T09:30:12;3.35;84.14
65421;DHT22;52028;50.658;14.004;2022-12-07T09:32:37;3.68;83.43
65421;DHT22;52028;50.658;14.004;2022-12-07T09:35:03;4.14;82.36
65421;DHT22;52028;50.658;14.004;2022-12-07T09:37:28;4.44;81.08
65421;DHT22;52028;50.658;14.004;2022-12-07T09:39:54;4.59;80.31
65421;DHT22;52028;50.658;14.004;2022-12-07T09:44:58;4.80;80.11
65421;DHT22;52028;50.658;14.004;2022-12-07T09:47:23;5.11;79.91
65421;DHT22;52028;50.658;14.004;2022-12-07T09:49:49;5.31;77.50
65421;DHT22;52028;50.658;14.004;2022-12-07T09:52:19;5.27;77.98
65421;DHT22;52028;50.658;14.004;2022-12-07T09:54:48;5.26;77.69
65421;DHT22;52028;50.658;14.004;2022-12-07T09:57:14;5.27;78.09
65421;DHT22;52028;50.658;14.004;2022-12-07T09:59:39;5.31;77.73
65421;DHT22;52028;50.658;14.004;2022-12-07T10:04:59;5.34;77.66
65421;DHT22;52028;50.658;14.004;2022-12-07T10:07:24;5.39;77.57
65421;DHT22;52028;50.658;14.004;2022-12-07T10:09:50;5.39;77.20
65421;DHT22;52028;50.658;14.004;2022-12-07T10:12:15;5.17;77.15
65421;DHT22;52028;50.658;14.004;2022-12-07T10:15:01;5.04;77.48
65421;DHT22;52028;50.658;14.004;2022-12-07T10:17:37;5.11;77.79
65421;DHT22;52028;50.658;14.004;2022-12-07T10:25:27;5.38;77.04
65421;DHT22;52028;50.658;14.004;2022-12-07T10:28:01;5.46;76.86
65421;DHT22;52028;50.658;14.004;2022-12-07T10:30:27;5.51;76.86
65421;DHT22;52028;50.658;14.004;2022-12-07T10:32:52;5.58;77.21
65421;DHT22;52028;50.658;14.004;2022-12-07T10:35:27;5.81;76.19
65421;DHT22;52028;50.658;14.004;2022-12-07T10:37:54;5.89;75.81
65421;DHT22;52028;50.658;14.004;2022-12-07T10:40:29;5.91;75.21
65421;DHT22;52028;50.658;14.004;2022-12-07T10:43:24;5.85;74.52
65421;DHT22;52028;50.658;14.004;2022-12-07T10:51:12;5.91;73.45
65421;DHT22;52028;50.658;14.004;2022-12-07T10:53:59;6.03;73.34
65421;DHT22;52028;50.658;14.004;2022-12-07T10:59:51;5.98;71.73
65421;DHT22;52028;50.658;14.004;2022-12-07T11:02:50;6.06;69.43
65421;DHT22;52028;50.658;14.004;2022-12-07T11:05:39;6.13;69.56
65421;DHT22;52028;50.658;14.004;2022-12-07T11:11:37;6.07;69.05
65421;DHT22;52028;50.658;14.004;2022-12-07T11:14:15;6.11;67.77
65421;DHT22;52028;50.658;14.004;2022-12-07T11:16:59;6.07;67.38
65421;DHT22;52028;50.658;14.004;2022-12-07T11:19:46;6.06;67.35
65421;DHT22;52028;50.658;14.004;2022-12-07T11:22:44;6.03;67.30
65421;DHT22;52028;50.658;14.004;2022-12-07T11:37:46;6.36;68.53
65421;DHT22;52028;50.658;14.004;2022-12-07T11:40:24;6.35;67.29
65421;DHT22;52028;50.658;14.004;2022-12-07T11:43:04;6.26;68.16
65421;DHT22;52028;50.658;14.004;2022-12-07T11:45:33;6.32;68.16
65421;DHT22;52028;50.658;14.004;2022-12-07T11:48:06;6.49;68.46
65421;DHT22;52028;50.658;14.004;2022-12-07T11:50:42;6.39;67.94
65421;DHT22;52028;50.658;14.004;2022-12-07T11:56:00;6.10;69.72
65421;DHT22;52028;50.658;14.004;2022-12-07T12:03:37;5.65;71.96
65421;DHT22;52028;50.658;14.004;2022-12-07T12:06:03;5.70;70.95
65421;DHT22;52028;50.658;14.004;2022-12-07T12:08:33;5.80;70.92
65421;DHT22;52028;50.658;14.004;2022-12-07T12:16:32;5.73;71.33
65421;DHT22;52028;50.658;14.004;2022-12-07T12:19:42;5.45;73.30
65421;DHT22;52028;50.658;14.004;2022-12-07T12:24:34;4.89;76.30
65421;DHT22;52028;50.658;14.004;2022-12-07T12:27:06;4.82;76.84
65421;DHT22;52028;50.658;14.004;2022-12-07T12:29:38;4.79;77.28
65421;DHT22;52028;50.658;14.004;2022-12-07T12:37:46;4.56;79.13
65421;DHT22;52028;50.658;14.004;2022-12-07T12:47:56;4.77;78.26
65421;DHT22;52028;50.658;14.004;2022-12-07T12:55:46;5.06;77.61
65421;DHT22;52028;50.658;14.004;2022-12-07T13:00:44;4.97;77.89
65421;DHT22;52028;50.658;14.004;2022-12-07T13:03:24;5.16;77.26
65421;DHT22;52028;50.658;14.004;2022-12-07T13:06:18;5.10;77.58
65421;DHT22;52028;50.658;14.004;2022-12-07T13:08:44;5.17;77.39
65421;DHT22;52028;50.658;14.004;2022-12-07T13:11:37;5.20;77.11
65421;DHT22;52028;50.658;14.004;2022-12-07T13:17:12;5.16;77.42
65421;DHT22;52028;50.658;14.004;2022-12-07T13:25:11;5.28;77.02
65421;DHT22;52028;50.658;14.004;2022-12-07T13:27:39;5.26;76.77
65421;DHT22;52028;50.658;14.004;2022-12-07T13:30:16;5.30;76.09
65421;DHT22;52028;50.658;14.004;2022-12-07T13:32:42;5.26;76.30
65421;DHT22;52028;50.658;14.004;2022-12-07T13:37:53;5.16;76.63
65421;DHT22;52028;50.658;14.004;2022-12-07T13:40:20;5.13;76.64
65421;DHT22;52028;50.658;14.004;2022-12-07T13:42:47;5.16;75.64
65421;DHT22;52028;50.658;14.004;2022-12-07T13:45:24;5.21;76.08
65421;DHT22;52028;50.658;14.004;2022-12-07T13:48:36;5.27;75.77
65421;DHT22;52028;50.658;14.004;2022-12-07T13:51:03;5.31;75.41
65421;DHT22;52028;50.658;14.004;2022-12-07T13:53:29;5.41;75.10
65421;DHT22;52028;50.658;14.004;2022-12-07T13:55:59;5.51;74.75
65421;DHT22;52028;50.658;14.004;2022-12-07T13:58:30;5.48;75.65
65421;DHT22;52028;50.658;14.004;2022-12-07T14:00:55;5.32;75.44
65421;DHT22;52028;50.658;14.004;2022-12-07T14:03:33;5.18;76.26
65421;DHT22;52028;50.658;14.004;2022-12-07T14:08:30;5.21;76.76
65421;DHT22;52028;50.658;14.004;2022-12-07T14:10:57;5.27;76.32
65421;DHT22;52028;50.658;14.004;2022-12-07T14:15:54;5.24;77.03
65421;DHT22;52028;50.658;14.004;2022-12-07T14:21:06;5.32;73.84
65421;DHT22;52028;50.658;14.004;2022-12-07T14:23:31;5.42;73.62
65421;DHT22;52028;50.658;14.004;2022-12-07T14:26:12;5.49;73.04
65421;DHT22;52028;50.658;14.004;2022-12-07T14:28:38;5.53;72.75
65421;DHT22;52028;50.658;14.004;2022-12-07T14:31:11;5.59;72.34
65421;DHT22;52028;50.658;14.004;2022-12-07T14:33:37;5.65;72.08
65421;DHT22;52028;50.658;14.004;2022-12-07T14:36:02;5.67;72.27
65421;DHT22;52028;50.658;14.004;2022-12-07T14:38:28;5.60;71.66
65421;DHT22;52028;50.658;14.004;2022-12-07T14:40:53;5.49;72.29
65421;DHT22;52028;50.658;14.004;2022-12-07T14:43:20;5.42;72.60
65421;DHT22;52028;50.658;14.004;2022-12-07T14:45:46;5.42;72.30
65421;DHT22;52028;50.658;14.004;2022-12-07T14:48:13;5.42;72.21
65421;DHT22;52028;50.658;14.004;2022-12-07T14:50:42;5.27;73.23
65421;DHT22;52028;50.658;14.004;2022-12-07T14:53:17;5.27;73.10
65421;DHT22;52028;50.658;14.004;2022-12-07T14:55:43;5.30;73.41
65421;DHT22;52028;50.658;14.004;2022-12-07T14:58:14;5.28;73.86
65421;DHT22;52028;50.658;14.004;2022-12-07T15:00:40;5.24;74.05
65421;DHT22;52028;50.658;14.004;2022-12-07T15:03:05;5.04;74.80
65421;DHT22;52028;50.658;14.004;2022-12-07T15:05:32;4.93;75.14
65421;DHT22;52028;50.658;14.004;2022-12-07T15:07:59;4.83;75.89
65421;DHT22;52028;50.658;14.004;2022-12-07T15:10:30;4.79;76.20
65421;DHT22;52028;50.658;14.004;2022-12-07T15:13:01;4.83;76.77
65421;DHT22;52028;50.658;14.004;2022-12-07T15:15:51;4.76;77.32
65421;DHT22;52028;50.658;14.004;2022-12-07T15:18:18;4.77;77.65
65421;DHT22;52028;50.658;14.004;2022-12-07T15:20:44;4.80;78.01
65421;DHT22;52028;50.658;14.004;2022-12-07T15:23:10;4.76;78.10
65421;DHT22;52028;50.658;14.004;2022-12-07T15:25:35;4.80;78.32
65421;DHT22;52028;50.658;14.004;2022-12-07T15:28:01;4.82;78.18
65421;DHT22;52028;50.658;14.004;2022-12-07T15:30:26;4.72;78.32
65421;DHT22;52028;50.658;14.004;2022-12-07T15:32:52;4.68;79.03
65421;DHT22;52028;50.658;14.004;2022-12-07T15:35:18;4.66;79.26
65421;DHT22;52028;50.658;14.004;2022-12-07T15:37:43;4.62;79.24
65421;DHT22;52028;50.658;14.004;2022-12-07T15:40:09;4.64;78.80
65421;DHT22;52028;50.658;14.004;2022-12-07T15:42:37;4.69;78.18
65421;DHT22;52028;50.658;14.004;2022-12-07T15:45:04;4.79;77.26
65421;DHT22;52028;50.658;14.004;2022-12-07T15:47:50;4.71;77.69
65421;DHT22;52028;50.658;14.004;2022-12-07T15:50:15;4.68;78.32
65421;DHT22;52028;50.658;14.004;2022-12-07T15:52:42;4.69;77.82
65421;DHT22;52028;50.658;14.004;2022-12-07T15:55:08;4.71;78.17
65421;DHT22;52028;50.658;14.004;2022-12-07T15:57:35;4.68;77.92
65421;DHT22;52028;50.658;14.004;2022-12-07T16:00:05;4.77;77.96
65421;DHT22;52028;50.658;14.004;2022-12-07T16:02:31;4.82;77.47
65421;DHT22;52028;50.658;14.004;2022-12-07T16:04:56;4.83;77.28
65421;DHT22;52028;50.658;14.004;2022-12-07T16:07:22;4.87;77.56
65421;DHT22;52028;50.658;14.004;2022-12-07T16:09:48;4.72;78.36
65421;DHT22;52028;50.658;14.004;2022-12-07T16:12:15;4.54;80.07
65421;DHT22;52028;50.658;14.004;2022-12-07T16:14:40;4.34;81.04
65421;DHT22;52028;50.658;14.004;2022-12-07T16:17:06;4.17;81.87
65421;DHT22;52028;50.658;14.004;2022-12-07T16:19:32;4.14;81.67
65421;DHT22;52028;50.658;14.004;2022-12-07T16:21:58;4.06;82.04
65421;DHT22;52028;50.658;14.004;2022-12-07T16:24:24;4.09;82.18
65421;DHT22;52028;50.658;14.004;2022-12-07T16:26:49;4.14;82.41
65421;DHT22;52028;50.658;14.004;2022-12-07T16:29:15;4.14;82.70
65421;DHT22;52028;50.658;14.004;2022-12-07T16:31:40;4.10;82.89
65421;DHT22;52028;50.658;14.004;2022-12-07T16:34:06;4.04;83.04
65421;DHT22;52028;50.658;14.004;2022-12-07T16:36:32;4.10;82.91
65421;DHT22;52028;50.658;14.004;2022-12-07T16:38:58;4.14;82.83
65421;DHT22;52028;50.658;14.004;2022-12-07T16:41:24;4.14;82.51
65421;DHT22;52028;50.658;14.004;2022-12-07T16:43:49;4.18;82.07
65421;DHT22;52028;50.658;14.004;2022-12-07T16:46:15;4.30;82.22
65421;DHT22;52028;50.658;14.004;2022-12-07T16:48:41;4.31;81.88
65421;DHT22;52028;50.658;14.004;2022-12-07T16:51:08;4.40;81.02
65421;DHT22;52028;50.658;14.004;2022-12-07T16:53:35;4.48;80.43
65421;DHT22;52028;50.658;14.004;2022-12-07T16:56:00;4.44;80.75
65421;DHT22;52028;50.658;14.004;2022-12-07T16:58:26;4.37;80.90
65421;DHT22;52028;50.658;14.004;2022-12-07T17:00:52;4.42;80.00
65421;DHT22;52028;50.658;14.004;2022-12-07T17:03:17;4.54;78.84
65421;DHT22;52028;50.658;14.004;2022-12-07T17:05:44;4.58;78.40
65421;DHT22;52028;50.658;14.004;2022-12-07T17:08:11;4.64;77.64
65421;DHT22;52028;50.658;14.004;2022-12-07T17:10:42;4.65;77.76
65421;DHT22;52028;50.658;14.004;2022-12-07T17:13:09;4.59;77.90
65421;DHT22;52028;50.658;14.004;2022-12-07T17:16:02;4.54;78.33
65421;DHT22;52028;50.658;14.004;2022-12-07T17:18:29;4.52;77.95
65421;DHT22;52028;50.658;14.004;2022-12-07T17:20:55;4.48;78.36
65421;DHT22;52028;50.658;14.004;2022-12-07T17:23:21;4.44;77.91
65421;DHT22;52028;50.658;14.004;2022-12-07T17:25:46;4.44;78.17
65421;DHT22;52028;50.658;14.004;2022-12-07T17:28:12;4.48;77.42
65421;DHT22;52028;50.658;14.004;2022-12-07T17:30:38;4.59;76.91
65421;DHT22;52028;50.658;14.004;2022-12-07T17:33:03;4.64;75.96
65421;DHT22;52028;50.658;14.004;2022-12-07T17:35:29;4.65;76.17
65421;DHT22;52028;50.658;14.004;2022-12-07T17:37:54;4.71;75.47
65421;DHT22;52028;50.658;14.004;2022-12-07T17:40:21;4.69;75.17
65421;DHT22;52028;50.658;14.004;2022-12-07T17:42:46;4.71;75.35
65421;DHT22;52028;50.658;14.004;2022-12-07T17:45:15;4.69;74.96
65421;DHT22;52028;50.658;14.004;2022-12-07T17:47:41;4.68;74.93
65421;DHT22;52028;50.658;14.004;2022-12-07T17:50:07;4.72;74.43
65421;DHT22;52028;50.658;14.004;2022-12-07T17:52:33;4.73;74.44
65421;DHT22;52028;50.658;14.004;2022-12-07T17:55:17;4.76;74.07